sim
Sign-in with your pilot id or email,
or register
Callsign
Passwort

LiveFlight Tracker

Flight Info OEC1024

Flight: OEC1024 PIC: Chris Clarke
Departure: LGKR Arrival: EDDM
Registration: PH-TFL
Current Alt: 4372 FT GS: 194 KT
Last Info: 2019-05-19 14:18:11
Distance: 10 NM Status: Approaching

ACARS Info OEC1024

Pilot Flight Time ALT GS Latitude Longitude
OEO0031 OEC1024 2019-05-19 14:18:11 4372 194 48.323494797696 11.529582619208
OEO0031 OEC1024 2019-05-19 14:17:56 4656 198 48.322146302561 11.509121513559
OEO0031 OEC1024 2019-05-19 14:17:41 4947 198 48.320743684368 11.48841437514
OEO0031 OEC1024 2019-05-19 14:17:26 5167 200 48.318782347132 11.467705702029
OEO0031 OEC1024 2019-05-19 14:17:11 5344 202 48.314634690878 11.447655408918
OEO0031 OEC1024 2019-05-19 14:16:56 5506 206 48.306239975264 11.430508080127
OEO0031 OEC1024 2019-05-19 14:16:41 5743 206 48.299851258993 11.411151426114
OEO0031 OEC1024 2019-05-19 14:16:26 5871 206 48.29439373073 11.39133361483
OEO0031 OEC1024 2019-05-19 14:16:11 6115 207 48.288973605762 11.371225596514
OEO0031 OEC1024 2019-05-19 14:15:56 6397 211 48.283643615997 11.350741979564
OEO0031 OEC1024 2019-05-19 14:15:41 6623 217 48.278466030937 11.329554333883
OEO0031 OEC1024 2019-05-19 14:15:26 6772 219 48.273667091844 11.307750605582
OEO0031 OEC1024 2019-05-19 14:15:11 6814 225 48.268461326478 11.285912143511
OEO0031 OEC1024 2019-05-19 14:14:56 6904 227 48.257125460735 11.269893026018
OEO0031 OEC1024 2019-05-19 14:14:41 6967 227 48.241691567594 11.266290556074
OEO0031 OEC1024 2019-05-19 14:14:26 7044 233 48.227542905462 11.27645147762
OEO0031 OEC1024 2019-05-19 14:14:11 7248 239 48.219319093295 11.297658802623
OEO0031 OEC1024 2019-05-19 14:13:56 7552 233 48.219574300717 11.321986011457
OEO0031 OEC1024 2019-05-19 14:13:41 7623 239 48.221552542184 11.346374511321
OEO0031 OEC1024 2019-05-19 14:13:26 7701 246 48.223588834528 11.37154177611
OEO0031 OEC1024 2019-05-19 14:13:11 7771 256 48.225709264857 11.397815017469
OEO0031 OEC1024 2019-05-19 14:12:56 7868 260 48.227858165941 11.424514565865
OEO0031 OEC1024 2019-05-19 14:12:41 7957 264 48.23004832343 11.45179911988
OEO0031 OEC1024 2019-05-19 14:12:26 8032 264 48.23224205605 11.479226473588
OEO0031 OEC1024 2019-05-19 14:12:11 8107 266 48.234440664034 11.506792826185
OEO0031 OEC1024 2019-05-19 14:11:56 8182 266 48.23663829571 11.534418625173
OEO0031 OEC1024 2019-05-19 14:11:41 8257 268 48.238837998231 11.562144765898
OEO0031 OEC1024 2019-05-19 14:11:26 8331 268 48.241034661842 11.589933597857
OEO0031 OEC1024 2019-05-19 14:11:11 8405 268 48.243229578428 11.617735791132
OEO0031 OEC1024 2019-05-19 14:10:56 8478 268 48.245414171966 11.645531715075
OEO0031 OEC1024 2019-05-19 14:10:41 8553 270 48.247613921513 11.673646625595
OEO0031 OEC1024 2019-05-19 14:10:26 8588 270 48.24862303327 11.686585287468
OEO0031 OEC1024 2019-05-19 14:10:11 8588 270 48.24862303327 11.686585287468
OEO0031 OEC1024 2019-05-19 14:09:56 8588 270 48.24862303327 11.686585287468
OEO0031 OEC1024 2019-05-19 14:09:41 8588 270 48.24862303327 11.686585287468
OEO0031 OEC1024 2019-05-19 14:09:26 8588 270 48.24862303327 11.686585287468
OEO0031 OEC1024 2019-05-19 14:09:11 8588 270 48.24862303327 11.686585287468
OEO0031 OEC1024 2019-05-19 14:08:56 8588 270 48.24862303327 11.686585287468
OEO0031 OEC1024 2019-05-19 14:08:41 8608 270 48.249183067985 11.69377933695
OEO0031 OEC1024 2019-05-19 14:08:26 8687 270 48.251362452633 11.721815568544
OEO0031 OEC1024 2019-05-19 14:08:11 8762 270 48.253534826806 11.749874156779
OEO0031 OEC1024 2019-05-19 14:07:56 8833 272 48.255711974171 11.778085198393
OEO0031 OEC1024 2019-05-19 14:07:41 8913 272 48.257881810554 11.806267483939
OEO0031 OEC1024 2019-05-19 14:07:26 8985 272 48.260039472165 11.834505951811
OEO0031 OEC1024 2019-05-19 14:07:11 9060 272 48.262212623412 11.862875894598
OEO0031 OEC1024 2019-05-19 14:06:56 9135 272 48.264374264347 11.891151220706
OEO0031 OEC1024 2019-05-19 14:06:41 9216 272 48.266521075713 11.919325393408
OEO0031 OEC1024 2019-05-19 14:06:26 9287 272 48.268683207989 11.947684057868
OEO0031 OEC1024 2019-05-19 14:06:11 9362 272 48.270857426649 11.976017054191
OEO0031 OEC1024 2019-05-19 14:05:56 9439 272 48.273048162584 12.004266495419
OEO0031 OEC1024 2019-05-19 14:05:41 9516 272 48.275277049318 12.032569445838
OEO0031 OEC1024 2019-05-19 14:05:26 9592 272 48.277583350963 12.060878206843
OEO0031 OEC1024 2019-05-19 14:05:11 9671 272 48.280034080251 12.089063977948
OEO0031 OEC1024 2019-05-19 14:04:56 9745 270 48.282765331685 12.117058738943
OEO0031 OEC1024 2019-05-19 14:04:41 9818 270 48.2860019901 12.14488167119
OEO0031 OEC1024 2019-05-19 14:04:26 9883 266 48.289987013997 12.172221214641
OEO0031 OEC1024 2019-05-19 14:04:11 9865 264 48.293829702633 12.19919299212
OEO0031 OEC1024 2019-05-19 14:03:56 9949 266 48.290751730656 12.226251589783
OEO0031 OEC1024 2019-05-19 14:03:41 10093 270 48.278884959456 12.247684959735
OEO0031 OEC1024 2019-05-19 14:03:26 10185 268 48.262337894549 12.260756488423
OEO0031 OEC1024 2019-05-19 14:03:11 10250 264 48.245673871205 12.272843041491
OEO0031 OEC1024 2019-05-19 14:02:56 10322 262 48.229222706186 12.284618367236
OEO0031 OEC1024 2019-05-19 14:02:41 10409 270 48.212460203852 12.296375135523
OEO0031 OEC1024 2019-05-19 14:02:26 10491 276 48.195103273586 12.30811451614
OEO0031 OEC1024 2019-05-19 14:02:11 10585 289 48.17695007018 12.319902659196
OEO0031 OEC1024 2019-05-19 14:01:56 10654 305 48.15817635267 12.332800897341
OEO0031 OEC1024 2019-05-19 14:01:41 11021 314 48.14163860393 12.353455461097
OEO0031 OEC1024 2019-05-19 14:01:26 11377 326 48.12986787801 12.38168232268
OEO0031 OEC1024 2019-05-19 14:01:11 11705 338 48.117982710196 12.411551091409
OEO0031 OEC1024 2019-05-19 14:00:56 12100 347 48.105818124222 12.442072107043
OEO0031 OEC1024 2019-05-19 14:00:41 12398 355 48.093266988335 12.473513961326
OEO0031 OEC1024 2019-05-19 14:00:26 12829 361 48.080374211398 12.505760251185
OEO0031 OEC1024 2019-05-19 14:00:11 13179 361 48.067446508487 12.53808241349
OEO0031 OEC1024 2019-05-19 13:59:56 13521 369 48.054403402537 12.570757466134
OEO0031 OEC1024 2019-05-19 13:59:41 13960 373 48.041265927574 12.603711675299
OEO0031 OEC1024 2019-05-19 13:59:26 14279 375 48.027929584727 12.637096467132
OEO0031 OEC1024 2019-05-19 13:59:11 14704 377 48.014394486245 12.670748869375
OEO0031 OEC1024 2019-05-19 13:58:56 15092 379 48.000727716933 12.704302630924
OEO0031 OEC1024 2019-05-19 13:58:41 15403 379 47.986822798346 12.73768169039
OEO0031 OEC1024 2019-05-19 13:58:26 15677 380 47.972449453487 12.770818636007
OEO0031 OEC1024 2019-05-19 13:58:11 15955 384 47.957291846075 12.803620818239
OEO0031 OEC1024 2019-05-19 13:57:56 16341 388 47.940667720327 12.835111928973
OEO0031 OEC1024 2019-05-19 13:57:41 16755 392 47.920375119143 12.862129523244
OEO0031 OEC1024 2019-05-19 13:57:26 17150 396 47.899214549354 12.888152154862
OEO0031 OEC1024 2019-05-19 13:57:11 17611 396 47.878027639946 12.914172365874
OEO0031 OEC1024 2019-05-19 13:56:56 17958 400 47.856284327962 12.940842458654
OEO0031 OEC1024 2019-05-19 13:56:41 18399 404 47.834938716788 12.966991608279
OEO0031 OEC1024 2019-05-19 13:56:26 18834 404 47.813242518482 12.993545579214
OEO0031 OEC1024 2019-05-19 13:56:11 19184 408 47.79134215143 13.020335433029
OEO0031 OEC1024 2019-05-19 13:55:56 19684 410 47.769365809159 13.047183618176
OEO0031 OEC1024 2019-05-19 13:55:41 20074 414 47.747215355662 13.074203863742
OEO0031 OEC1024 2019-05-19 13:55:26 20470 417 47.724783130741 13.101533186428
OEO0031 OEC1024 2019-05-19 13:55:11 20975 419 47.702250470239 13.128943677277
OEO0031 OEC1024 2019-05-19 13:54:56 21351 421 47.67969962184 13.156345831244
OEO0031 OEC1024 2019-05-19 13:54:41 21800 425 47.656880756986 13.184086843175
OEO0031 OEC1024 2019-05-19 13:54:26 22265 427 47.633811796302 13.211988514784
OEO0031 OEC1024 2019-05-19 13:54:11 22644 431 47.610679892533 13.239716134017
OEO0031 OEC1024 2019-05-19 13:53:56 23171 433 47.587039934847 13.267490494379
OEO0031 OEC1024 2019-05-19 13:53:41 23579 435 47.563014555727 13.294683460277
OEO0031 OEC1024 2019-05-19 13:53:26 24009 441 47.538230270873 13.321029751213
OEO0031 OEC1024 2019-05-19 13:53:11 24536 443 47.512603223557 13.346108103174
OEO0031 OEC1024 2019-05-19 13:52:56 24931 445 47.486362319354 13.370039736417
OEO0031 OEC1024 2019-05-19 13:52:41 25330 452 47.458756539096 13.391269703635
OEO0031 OEC1024 2019-05-19 13:52:26 25922 458 47.428415817127 13.404988120032
OEO0031 OEC1024 2019-05-19 13:52:11 26457 460 47.397243437071 13.415914321267
OEO0031 OEC1024 2019-05-19 13:51:56 26877 464 47.365949298412 13.426863113373
OEO0031 OEC1024 2019-05-19 13:51:41 27334 468 47.33453217457 13.437854559329
OEO0031 OEC1024 2019-05-19 13:51:26 27900 470 47.302549548727 13.449048518035
OEO0031 OEC1024 2019-05-19 13:51:11 28354 474 47.270629611055 13.460206730165
OEO0031 OEC1024 2019-05-19 13:50:56 28794 478 47.238419651702 13.471423055401
OEO0031 OEC1024 2019-05-19 13:50:41 29359 482 47.20589784935 13.482745313552
OEO0031 OEC1024 2019-05-19 13:50:26 29849 485 47.173230292249 13.494122131014
OEO0031 OEC1024 2019-05-19 13:50:11 30293 489 47.140190800123 13.505592221805
OEO0031 OEC1024 2019-05-19 13:49:56 30863 491 47.106870854649 13.517149293192
OEO0031 OEC1024 2019-05-19 13:49:41 31384 495 47.073462798776 13.528739271018
OEO0031 OEC1024 2019-05-19 13:49:26 31828 495 47.0398866324 13.540362524795
OEO0031 OEC1024 2019-05-19 13:49:11 32384 495 47.006317900889 13.551962774117
OEO0031 OEC1024 2019-05-19 13:48:56 32929 495 46.972732199578 13.563553912167
OEO0031 OEC1024 2019-05-19 13:48:41 33367 495 46.939110728795 13.575153193012
OEO0031 OEC1024 2019-05-19 13:48:26 33923 497 46.905363514122 13.586782806817
OEO0031 OEC1024 2019-05-19 13:48:11 34466 497 46.871799406335 13.598324876911
OEO0031 OEC1024 2019-05-19 13:47:56 34911 497 46.838032205193 13.609908791105
OEO0031 OEC1024 2019-05-19 13:47:41 35444 497 46.804425875919 13.621407819547
OEO0031 OEC1024 2019-05-19 13:47:26 36011 499 46.77054368637 13.632953853903
OEO0031 OEC1024 2019-05-19 13:47:11 36458 499 46.736632289984 13.644440184704
OEO0031 OEC1024 2019-05-19 13:46:56 36975 501 46.702795417067 13.655825942174
OEO0031 OEC1024 2019-05-19 13:46:41 37558 503 46.668619905467 13.667307072578
OEO0031 OEC1024 2019-05-19 13:46:26 38016 505 46.634638686363 13.67891659993
OEO0031 OEC1024 2019-05-19 13:46:11 38521 507 46.600521289725 13.691278470185
OEO0031 OEC1024 2019-05-19 13:45:56 39124 507 46.566508033494 13.705334116632
OEO0031 OEC1024 2019-05-19 13:45:41 39582 507 46.533226781749 13.722402174323
OEO0031 OEC1024 2019-05-19 13:45:26 39734 505 46.501848964692 13.745719446248
OEO0031 OEC1024 2019-05-19 13:45:11 39755 503 46.474088394774 13.777149896209
OEO0031 OEC1024 2019-05-19 13:44:56 39751 503 46.447893203658 13.810829413822
OEO0031 OEC1024 2019-05-19 13:44:41 39756 503 46.421717795745 13.84442546238
OEO0031 OEC1024 2019-05-19 13:44:26 39764 503 46.395502790115 13.878007982379
OEO0031 OEC1024 2019-05-19 13:44:11 39764 503 46.369344406868 13.911439307534
OEO0031 OEC1024 2019-05-19 13:43:56 39758 503 46.342925653533 13.945152004817
OEO0031 OEC1024 2019-05-19 13:43:41 39752 503 46.316676527933 13.978610596412
OEO0031 OEC1024 2019-05-19 13:43:26 39754 503 46.290410238878 14.012066661784
OEO0031 OEC1024 2019-05-19 13:43:11 39761 503 46.264199957054 14.045407028711
OEO0031 OEC1024 2019-05-19 13:42:56 39765 503 46.237999578618 14.078690745898
OEO0031 OEC1024 2019-05-19 13:42:41 39761 503 46.211611600021 14.112168160073
OEO0031 OEC1024 2019-05-19 13:42:26 39753 503 46.185403059642 14.145373966101
OEO0031 OEC1024 2019-05-19 13:42:11 39752 503 46.159112564717 14.178640000603
OEO0031 OEC1024 2019-05-19 13:41:56 39758 503 46.132774346548 14.211923312686
OEO0031 OEC1024 2019-05-19 13:41:41 39765 503 46.10648059422 14.245107907761
OEO0031 OEC1024 2019-05-19 13:41:26 39763 503 46.080083467855 14.278380807841
OEO0031 OEC1024 2019-05-19 13:41:11 39756 503 46.053705290605 14.311586704745
OEO0031 OEC1024 2019-05-19 13:40:56 39751 503 46.027340723293 14.344729238694
OEO0031 OEC1024 2019-05-19 13:40:41 39755 503 46.001158055817 14.377587480525
OEO0031 OEC1024 2019-05-19 13:40:26 39763 501 45.974706114829 14.410730857141
OEO0031 OEC1024 2019-05-19 13:40:11 39766 501 45.948303405713 14.443781678816
OEO0031 OEC1024 2019-05-19 13:39:56 39757 501 45.921955773063 14.476737222659
OEO0031 OEC1024 2019-05-19 13:39:41 39752 501 45.895630355121 14.509606871155
OEO0031 OEC1024 2019-05-19 13:39:26 39753 501 45.869348243004 14.542361825797
OEO0031 OEC1024 2019-05-19 13:39:11 39760 501 45.842925702247 14.575271910658
OEO0031 OEC1024 2019-05-19 13:38:56 39767 501 45.816594398957 14.608038868331
OEO0031 OEC1024 2019-05-19 13:38:41 39763 501 45.790291729069 14.640737563768
OEO0031 OEC1024 2019-05-19 13:38:26 39754 501 45.763837164255 14.673579387738
OEO0031 OEC1024 2019-05-19 13:38:11 39751 501 45.737485076979 14.706217657952
OEO0031 OEC1024 2019-05-19 13:37:56 39756 501 45.711082281555 14.738893337422
OEO0031 OEC1024 2019-05-19 13:37:41 39762 501 45.684677795508 14.771572361165
OEO0031 OEC1024 2019-05-19 13:37:26 39764 501 45.658368427694 14.80406497091
OEO0031 OEC1024 2019-05-19 13:37:11 39760 501 45.631763716136 14.836723456968
OEO0031 OEC1024 2019-05-19 13:36:56 39753 501 45.605201381969 14.868887948726
OEO0031 OEC1024 2019-05-19 13:36:41 39746 501 45.578383244047 14.900422330606
OEO0031 OEC1024 2019-05-19 13:36:26 39756 501 45.5509292177 14.931080759179
OEO0031 OEC1024 2019-05-19 13:36:11 39768 501 45.522653171529 14.960405766715
OEO0031 OEC1024 2019-05-19 13:35:56 39769 501 45.493529641739 14.988398307419
OEO0031 OEC1024 2019-05-19 13:35:41 39723 503 45.463422654592 15.013630190007
OEO0031 OEC1024 2019-05-19 13:35:26 39753 507 45.430927533992 15.031816221395
OEO0031 OEC1024 2019-05-19 13:35:11 39760 507 45.396907491836 15.044929135505
OEO0031 OEC1024 2019-05-19 13:34:56 39763 507 45.362789301702 15.058014149647
OEO0031 OEC1024 2019-05-19 13:34:41 39758 507 45.328699697952 15.071131629828
OEO0031 OEC1024 2019-05-19 13:34:26 39751 507 45.294677222509 15.084421945263
OEO0031 OEC1024 2019-05-19 13:34:11 39746 507 45.260822268252 15.098097725478
OEO0031 OEC1024 2019-05-19 13:33:56 39751 507 45.227124635603 15.112711778648
OEO0031 OEC1024 2019-05-19 13:33:41 39763 505 45.193782922157 15.128795376302
OEO0031 OEC1024 2019-05-19 13:33:26 39771 505 45.16103378507 15.146544152536
OEO0031 OEC1024 2019-05-19 13:33:11 39739 503 45.128829138133 15.166586465268
OEO0031 OEC1024 2019-05-19 13:32:56 39746 503 45.098504131881 15.191170001116
OEO0031 OEC1024 2019-05-19 13:32:41 39740 503 45.068610820757 15.216853457128
OEO0031 OEC1024 2019-05-19 13:32:26 39745 503 45.038602463505 15.242588819005
OEO0031 OEC1024 2019-05-19 13:32:11 39753 503 45.00876124732 15.268146668168
OEO0031 OEC1024 2019-05-19 13:31:56 39752 503 44.978751622044 15.293819415423
OEO0031 OEC1024 2019-05-19 13:31:41 39746 503 44.948991928949 15.319263889879
OEO0031 OEC1024 2019-05-19 13:31:26 39736 503 44.919049035109 15.34484186181
OEO0031 OEC1024 2019-05-19 13:31:11 39742 503 44.889158817758 15.370348215565
OEO0031 OEC1024 2019-05-19 13:30:56 39749 503 44.859216520198 15.395846449481
OEO0031 OEC1024 2019-05-19 13:30:41 39749 501 44.829301038033 15.421293214976
OEO0031 OEC1024 2019-05-19 13:30:26 39747 501 44.799457586896 15.446636423688
OEO0031 OEC1024 2019-05-19 13:30:11 39739 501 44.76944802127 15.472074168185
OEO0031 OEC1024 2019-05-19 13:29:56 39734 501 44.739398381492 15.497536415134
OEO0031 OEC1024 2019-05-19 13:29:41 39738 501 44.709531712562 15.522818623384
OEO0031 OEC1024 2019-05-19 13:29:26 39745 501 44.679672033841 15.548072121875
OEO0031 OEC1024 2019-05-19 13:29:11 39742 501 44.649838179868 15.573287940571
OEO0031 OEC1024 2019-05-19 13:28:56 39738 501 44.619918617705 15.598528813818
OEO0031 OEC1024 2019-05-19 13:28:41 39730 501 44.590035750782 15.623695842914
OEO0031 OEC1024 2019-05-19 13:28:26 39724 501 44.560065481512 15.648905468733
OEO0031 OEC1024 2019-05-19 13:28:11 39728 501 44.530028065848 15.674141502286
OEO0031 OEC1024 2019-05-19 13:27:56 39736 501 44.500258215992 15.699125902998
OEO0031 OEC1024 2019-05-19 13:27:41 39737 501 44.470302822476 15.724241721939
OEO0031 OEC1024 2019-05-19 13:27:26 39731 501 44.440192052374 15.749448991407
OEO0031 OEC1024 2019-05-19 13:27:11 39724 501 44.410378072686 15.774365370554
OEO0031 OEC1024 2019-05-19 13:26:56 39725 501 44.380465195893 15.799325023124
OEO0031 OEC1024 2019-05-19 13:26:41 39732 501 44.350416384413 15.824358664193
OEO0031 OEC1024 2019-05-19 13:26:26 39738 501 44.320532473091 15.849225702435
OEO0031 OEC1024 2019-05-19 13:26:11 39733 501 44.290562187144 15.87416487321
OEO0031 OEC1024 2019-05-19 13:25:56 39726 501 44.260737717925 15.898979977774
OEO0031 OEC1024 2019-05-19 13:25:41 39726 501 44.230732762115 15.923939048545
OEO0031 OEC1024 2019-05-19 13:25:26 39733 501 44.20075419958 15.948824699923
OEO0031 OEC1024 2019-05-19 13:25:11 39740 501 44.170806831046 15.973625554966
OEO0031 OEC1024 2019-05-19 13:24:56 39739 501 44.140924132968 15.998343258584
OEO0031 OEC1024 2019-05-19 13:24:41 39732 501 44.110990233261 16.023073397455
OEO0031 OEC1024 2019-05-19 13:24:26 39726 501 44.080946546648 16.047863742903
OEO0031 OEC1024 2019-05-19 13:24:11 39729 501 44.050987340718 16.072553226447
OEO0031 OEC1024 2019-05-19 13:23:56 39737 501 44.021058462585 16.097185583797
OEO0031 OEC1024 2019-05-19 13:23:41 39743 501 43.991071313261 16.121831821769
OEO0031 OEC1024 2019-05-19 13:23:26 39739 501 43.961023556936 16.146493734729
OEO0031 OEC1024 2019-05-19 13:23:11 39731 499 43.93099824004 16.171106826238
OEO0031 OEC1024 2019-05-19 13:22:56 39728 499 43.900952432706 16.195720571814
OEO0031 OEC1024 2019-05-19 13:22:41 39733 499 43.871011678932 16.220228022986
OEO0031 OEC1024 2019-05-19 13:22:26 39741 499 43.841211005193 16.244595982464
OEO0031 OEC1024 2019-05-19 13:22:11 39753 499 43.81120365829 16.269106322105
OEO0031 OEC1024 2019-05-19 13:21:56 39758 499 43.781153932697 16.293617603357
OEO0031 OEC1024 2019-05-19 13:21:41 39751 499 43.751199954415 16.318006809526
OEO0031 OEC1024 2019-05-19 13:21:26 39743 499 43.721294195664 16.342328309172
OEO0031 OEC1024 2019-05-19 13:21:11 39741 499 43.691238349057 16.366755025016
OEO0031 OEC1024 2019-05-19 13:20:56 39746 499 43.661409008868 16.390979147632
OEO0031 OEC1024 2019-05-19 13:20:41 39754 499 43.631456410072 16.415276511252
OEO0031 OEC1024 2019-05-19 13:20:26 39765 499 43.601332232627 16.439666503129
OEO0031 OEC1024 2019-05-19 13:20:11 39778 499 43.571511225788 16.463766171173
OEO0031 OEC1024 2019-05-19 13:19:56 39794 499 43.541485717218 16.488016024764
OEO0031 OEC1024 2019-05-19 13:19:41 39811 499 43.511494699229 16.51222491302
OEO0031 OEC1024 2019-05-19 13:19:26 39827 497 43.481643614106 16.536290170238
OEO0031 OEC1024 2019-05-19 13:19:11 39840 497 43.45177223444 16.560342328914
OEO0031 OEC1024 2019-05-19 13:18:56 39852 497 43.421674448361 16.584549683243
OEO0031 OEC1024 2019-05-19 13:18:41 39863 497 43.391878175847 16.608484616783
OEO0031 OEC1024 2019-05-19 13:18:26 39871 497 43.36181926192 16.632581672955
OEO0031 OEC1024 2019-05-19 13:18:11 39880 497 43.331996078424 16.656458592636
OEO0031 OEC1024 2019-05-19 13:17:56 39883 497 43.301985934033 16.680469030965
OEO0031 OEC1024 2019-05-19 13:17:41 39877 497 43.272180297031 16.704296228245
OEO0031 OEC1024 2019-05-19 13:17:26 39870 497 43.24212490277 16.728304131128
OEO0031 OEC1024 2019-05-19 13:17:11 39871 497 43.212357085764 16.752037919831
OEO0031 OEC1024 2019-05-19 13:16:56 39875 497 43.182388165317 16.775915923099
OEO0031 OEC1024 2019-05-19 13:16:41 39874 497 43.152485933541 16.79972273458
OEO0031 OEC1024 2019-05-19 13:16:26 39870 497 43.12247238562 16.823610510654
OEO0031 OEC1024 2019-05-19 13:16:11 39863 497 43.092594445136 16.847336883708
OEO0031 OEC1024 2019-05-19 13:15:56 39858 497 43.062805552882 16.87096514673
OEO0031 OEC1024 2019-05-19 13:15:41 39855 497 43.032715732544 16.894803452582
OEO0031 OEC1024 2019-05-19 13:15:26 39849 497 43.002903964745 16.918387934233
OEO0031 OEC1024 2019-05-19 13:15:11 39843 497 42.972956314402 16.942046072589
OEO0031 OEC1024 2019-05-19 13:14:56 39835 497 42.943012746383 16.965687704259
OEO0031 OEC1024 2019-05-19 13:14:41 39832 497 42.913006334985 16.989361487161
OEO0031 OEC1024 2019-05-19 13:14:26 39831 497 42.883151200535 17.012884872345
OEO0031 OEC1024 2019-05-19 13:14:11 39828 497 42.853203669103 17.03644991849
OEO0031 OEC1024 2019-05-19 13:13:56 39821 495 42.823284702795 17.059956131918
OEO0031 OEC1024 2019-05-19 13:13:41 39813 495 42.793377466765 17.083416518742
OEO0031 OEC1024 2019-05-19 13:13:26 39808 495 42.763413238429 17.106904865749
OEO0031 OEC1024 2019-05-19 13:13:11 39811 495 42.733498514723 17.130345050088
OEO0031 OEC1024 2019-05-19 13:12:56 39813 495 42.703725046609 17.15365263854
OEO0031 OEC1024 2019-05-19 13:12:41 39809 495 42.673790398308 17.177062420739
OEO0031 OEC1024 2019-05-19 13:12:26 39801 495 42.643922122518 17.200385805218
OEO0031 OEC1024 2019-05-19 13:12:11 39793 495 42.613946352298 17.22375395351
OEO0031 OEC1024 2019-05-19 13:11:56 39792 495 42.584012803747 17.247052006858
OEO0031 OEC1024 2019-05-19 13:11:41 39793 495 42.554115389265 17.270298338006
OEO0031 OEC1024 2019-05-19 13:11:26 39788 495 42.52414363119 17.293593177653
OEO0031 OEC1024 2019-05-19 13:11:11 39783 495 42.494257274825 17.316802244447
OEO0031 OEC1024 2019-05-19 13:10:56 39787 495 42.464339864555 17.340014227729
OEO0031 OEC1024 2019-05-19 13:10:41 39795 495 42.43456967176 17.363087056563
OEO0031 OEC1024 2019-05-19 13:10:26 39801 495 42.404776356168 17.386143825479
OEO0031 OEC1024 2019-05-19 13:10:11 39796 495 42.374782323328 17.409319895269
OEO0031 OEC1024 2019-05-19 13:09:56 39789 493 42.344981193089 17.432303025363
OEO0031 OEC1024 2019-05-19 13:09:41 39783 493 42.315071754661 17.455360380954
OEO0031 OEC1024 2019-05-19 13:09:26 39787 493 42.285243588404 17.478337020915
OEO0031 OEC1024 2019-05-19 13:09:11 39793 493 42.255347469159 17.501340953294
OEO0031 OEC1024 2019-05-19 13:08:56 39792 493 42.225406866096 17.524354048403
OEO0031 OEC1024 2019-05-19 13:08:41 39785 493 42.195606836733 17.547233971463
OEO0031 OEC1024 2019-05-19 13:08:26 39777 493 42.165755867931 17.570125021947
OEO0031 OEC1024 2019-05-19 13:08:11 39778 493 42.135812798255 17.59306505917
OEO0031 OEC1024 2019-05-19 13:07:56 39785 493 42.106033236867 17.615867957615
OEO0031 OEC1024 2019-05-19 13:07:41 39786 493 42.076018527879 17.638837541765
OEO0031 OEC1024 2019-05-19 13:07:26 39781 493 42.046345543477 17.661533395555
OEO0031 OEC1024 2019-05-19 13:07:11 39773 493 42.016355712145 17.684451282307
OEO0031 OEC1024 2019-05-19 13:06:56 39767 493 41.986693457478 17.707102110384
OEO0031 OEC1024 2019-05-19 13:06:41 39772 491 41.9569199728 17.730051875484
OEO0031 OEC1024 2019-05-19 13:06:26 39782 491 41.927373437376 17.753341377326
OEO0031 OEC1024 2019-05-19 13:06:11 39777 491 41.898118488206 17.777407051111
OEO0031 OEC1024 2019-05-19 13:05:56 39773 491 41.86957313123 17.802720667726
OEO0031 OEC1024 2019-05-19 13:05:41 39766 491 41.841140223515 17.828201810682
OEO0031 OEC1024 2019-05-19 13:05:26 39761 491 41.81280675839 17.85357260142
OEO0031 OEC1024 2019-05-19 13:05:11 39753 491 41.784402389354 17.878986954309
OEO0031 OEC1024 2019-05-19 13:04:56 39744 491 41.755994661738 17.904384113818
OEO0031 OEC1024 2019-05-19 13:04:41 39751 491 41.727601982718 17.929713246741
OEO0031 OEC1024 2019-05-19 13:04:26 39759 491 41.699118598821 17.95509261702
OEO0031 OEC1024 2019-05-19 13:04:11 39762 489 41.670747125905 17.980363045229
OEO0031 OEC1024 2019-05-19 13:03:56 39756 489 41.642306871426 18.0057121943
OEO0031 OEC1024 2019-05-19 13:03:41 39748 489 41.613888293668 18.03109064142
OEO0031 OEC1024 2019-05-19 13:03:26 39738 489 41.585643401085 18.056356225388
OEO0031 OEC1024 2019-05-19 13:03:11 39726 491 41.557271520339 18.081726304007
OEO0031 OEC1024 2019-05-19 13:02:56 39730 491 41.528670805997 18.106808024399
OEO0031 OEC1024 2019-05-19 13:02:41 39736 491 41.499612727282 18.130816337821
OEO0031 OEC1024 2019-05-19 13:02:26 39738 491 41.469677560939 18.152689926062
OEO0031 OEC1024 2019-05-19 13:02:11 39731 491 41.43930428564 18.174161464349
OEO0031 OEC1024 2019-05-19 13:01:56 39727 491 41.40908282529 18.195518126735
OEO0031 OEC1024 2019-05-19 13:01:41 39729 491 41.378928842363 18.216810162322
OEO0031 OEC1024 2019-05-19 13:01:26 39732 489 41.348835629513 18.238031238226
OEO0031 OEC1024 2019-05-19 13:01:21 39734 485 41.198436473567 18.34365037607
OEO0031 OEC1024 2019-05-19 12:59:56 39722 484 41.168609612762 18.364567618533
OEO0031 OEC1024 2019-05-19 12:59:41 39644 482 41.139031495931 18.385260141813
OEO0031 OEC1024 2019-05-19 12:59:26 39422 482 41.109283675794 18.406043087017
OEO0031 OEC1024 2019-05-19 12:59:11 39153 482 41.079531850762 18.426801484583
OEO0031 OEC1024 2019-05-19 12:58:56 38882 482 41.04998915111 18.447399995592
OEO0031 OEC1024 2019-05-19 12:58:40 38603 482 41.020207328291 18.468169573864
OEO0031 OEC1024 2019-05-19 12:58:25 38292 482 40.99048265508 18.488874157326
OEO0031 OEC1024 2019-05-19 12:58:10 37950 484 40.960867842392 18.509483985773
OEO0031 OEC1024 2019-05-19 12:57:55 37604 484 40.931018751016 18.530221441058
OEO0031 OEC1024 2019-05-19 12:57:40 37269 484 40.901142528976 18.550957515205
OEO0031 OEC1024 2019-05-19 12:57:25 36954 484 40.871496749844 18.571517628247
OEO0031 OEC1024 2019-05-19 12:57:10 36618 484 40.841633731375 18.592196848711
OEO0031 OEC1024 2019-05-19 12:56:55 36223 484 40.811673448103 18.612910590163
OEO0031 OEC1024 2019-05-19 12:56:40 35786 485 40.781884577174 18.633480729294
OEO0031 OEC1024 2019-05-19 12:56:25 35330 487 40.751943538569 18.654154061263
OEO0031 OEC1024 2019-05-19 12:56:10 34907 487 40.721927953682 18.674882505377
OEO0031 OEC1024 2019-05-19 12:55:55 34541 485 40.691820383026 18.695635836419
OEO0031 OEC1024 2019-05-19 12:55:40 34147 485 40.661885845457 18.716228152092
OEO0031 OEC1024 2019-05-19 12:55:25 33647 485 40.631880094879 18.736827772276
OEO0031 OEC1024 2019-05-19 12:55:11 33039 489 40.601669656852 18.757558154817
OEO0031 OEC1024 2019-05-19 12:54:55 32468 493 40.571464745935 18.77825257877
OEO0031 OEC1024 2019-05-19 12:54:40 31990 491 40.541076176683 18.799094192143
OEO0031 OEC1024 2019-05-19 12:54:25 31569 489 40.510567966309 18.820028197264
OEO0031 OEC1024 2019-05-19 12:54:10 31162 487 40.48044518467 18.840666258664
OEO0031 OEC1024 2019-05-19 12:53:55 30812 484 40.450336503288 18.861209557575
OEO0031 OEC1024 2019-05-19 12:53:40 30422 482 40.420602841965 18.881493572877
OEO0031 OEC1024 2019-05-19 12:53:25 30005 478 40.390956920434 18.901825900733
OEO0031 OEC1024 2019-05-19 12:53:10 29622 474 40.361610673169 18.922253836902
OEO0031 OEC1024 2019-05-19 12:52:56 29207 470 40.332844587182 18.942866373794
OEO0031 OEC1024 2019-05-19 12:52:40 28704 468 40.304567854651 18.964102384184
OEO0031 OEC1024 2019-05-19 12:52:25 28255 464 40.278755926619 18.984705797046
OEO0031 OEC1024 2019-05-19 12:52:10 28181 464 40.273398227439 18.989150620407
OEO0031 OEC1024 2019-05-19 12:51:55 27900 456 40.249506596264 19.009534526051
OEO0031 OEC1024 2019-05-19 12:51:40 27624 447 40.223819972858 19.033268998854
OEO0031 OEC1024 2019-05-19 12:51:25 26963 441 40.200622656745 19.060154916411
OEO0031 OEC1024 2019-05-19 12:51:10 26513 437 40.179487064591 19.088917921628
OEO0031 OEC1024 2019-05-19 12:50:55 26035 435 40.158423737421 19.117553898517
OEO0031 OEC1024 2019-05-19 12:50:40 25544 431 40.137597089851 19.145829342987
OEO0031 OEC1024 2019-05-19 12:50:25 25071 427 40.116840046286 19.173980801762
OEO0031 OEC1024 2019-05-19 12:50:10 24573 423 40.096151001933 19.202009952866
OEO0031 OEC1024 2019-05-19 12:49:55 24082 421 40.075863863733 19.22946387969
OEO0031 OEC1024 2019-05-19 12:49:40 23546 417 40.055484171686 19.257009295972
OEO0031 OEC1024 2019-05-19 12:49:25 22994 415 40.035378166774 19.284154745327
OEO0031 OEC1024 2019-05-19 12:49:10 22527 410 40.015392278936 19.311136680834
OEO0031 OEC1024 2019-05-19 12:48:55 21981 408 39.995524661224 19.337948880432
OEO0031 OEC1024 2019-05-19 12:48:40 21420 404 39.975961040798 19.36429397633
OEO0031 OEC1024 2019-05-19 12:48:25 20838 400 39.956441063328 19.390579375463
OEO0031 OEC1024 2019-05-19 12:48:10 20205 398 39.937088774252 19.41667686636
OEO0031 OEC1024 2019-05-19 12:47:55 19577 396 39.917841013586 19.442722134369
OEO0031 OEC1024 2019-05-19 12:47:40 18993 390 39.898963587833 19.468312175737
OEO0031 OEC1024 2019-05-19 12:47:25 18324 386 39.880209768012 19.493660177373
OEO0031 OEC1024 2019-05-19 12:47:10 17525 388 39.861298350632 19.518777220734
OEO0031 OEC1024 2019-05-19 12:46:55 16796 386 39.841764093923 19.543103971496
OEO0031 OEC1024 2019-05-19 12:46:40 16052 384 39.821869071698 19.566625018789
OEO0031 OEC1024 2019-05-19 12:46:25 15296 380 39.802171772112 19.58987579568
OEO0031 OEC1024 2019-05-19 12:46:10 14412 379 39.782614586831 19.612898753524
OEO0031 OEC1024 2019-05-19 12:45:55 13427 380 39.763033965233 19.635903382092
OEO0031 OEC1024 2019-05-19 12:45:40 12558 377 39.743448742537 19.658874906026
OEO0031 OEC1024 2019-05-19 12:45:25 11855 367 39.724211699148 19.681480664665
OEO0031 OEC1024 2019-05-19 12:45:10 11151 355 39.705587420831 19.70339852309
OEO0031 OEC1024 2019-05-19 12:44:55 10659 336 39.687781466836 19.72443814776
OEO0031 OEC1024 2019-05-19 12:44:40 10199 314 39.671013553692 19.744218566017
OEO0031 OEC1024 2019-05-19 12:44:25 9348 305 39.655053784665 19.76289776199
OEO0031 OEC1024 2019-05-19 12:44:10 8352 301 39.639377731762 19.781140388561
OEO0031 OEC1024 2019-05-19 12:43:55 7400 297 39.623772570354 19.799175251441
OEO0031 OEC1024 2019-05-19 12:43:40 6529 289 39.608333420861 19.816827410088
OEO0031 OEC1024 2019-05-19 12:43:25 5736 277 39.593474919597 19.833460703269
OEO0031 OEC1024 2019-05-19 12:43:10 4980 266 39.578900284565 19.849253853882
OEO0031 OEC1024 2019-05-19 12:42:55 4356 244 39.564999031741 19.863788376316
OEO0031 OEC1024 2019-05-19 12:42:40 3619 227 39.554035818508 19.879643802488
OEO0031 OEC1024 2019-05-19 12:42:25 2933 206 39.551567656248 19.89863940868
OEO0031 OEC1024 2019-05-19 12:42:10 2342 184 39.557848867788 19.913980035397
OEO0031 OEC1024 2019-05-19 12:41:55 1806 163 39.568810859003 19.919811361659
OEO0031 OEC1024 2019-05-19 12:41:40 931 163 39.579880447774 19.918135174665
OEO0031 OEC1024 2019-05-19 12:41:25 203 165 39.591147771429 19.915013760762
OEO0031 OEC1024 2019-05-19 12:41:10 20 132 39.601690171608 19.912200092409
OEO0031 OEC1024 2019-05-19 12:40:55 20 73 39.608921819608 19.910325872168
OEO0031 OEC1024 2019-05-19 12:40:40 20 7 39.611623468923 19.909628232295
OEO0031 OEC1024 2019-05-19 12:40:25 20 0 39.61170675564 19.909608049349
OEO0031 OEC1024 2019-05-19 12:40:10 20 0 39.611707567377 19.909607852637
OEO0031 OEC1024 2019-05-19 12:39:55 20 0 39.611708378553 19.90960765606
OEO0031 OEC1024 2019-05-19 12:39:40 20 0 39.611709233184 19.909607448951
OEO0031 OEC1024 2019-05-19 12:39:25 20 0 39.611710090053 19.909607241301
OEO0031 OEC1024 2019-05-19 12:39:10 20 0 39.611710945841 19.909607033913
OEO0031 OEC1024 2019-05-19 12:38:55 20 0 39.611711803205 19.909606826142
OEO0031 OEC1024 2019-05-19 12:38:40 20 0 39.611712621134 19.909606627927
OEO0031 OEC1024 2019-05-19 12:38:25 20 0 39.611713466975 19.909606422949
OEO0031 OEC1024 2019-05-19 12:38:10 20 0 39.611714313421 19.909606217825
OEO0031 OEC1024 2019-05-19 12:37:55 20 5 39.611998457119 19.909542243196
OEO0031 OEC1024 2019-05-19 12:37:40 20 11 39.612316500829 19.910087678328
OEO0031 OEC1024 2019-05-19 12:37:25 20 11 39.611740126621 19.91090603298
OEO0031 OEC1024 2019-05-19 12:37:10 20 11 39.610862726147 19.911134753165
OEO0031 OEC1024 2019-05-19 12:36:55 20 13 39.609952731998 19.911379778888
OEO0031 OEC1024 2019-05-19 12:36:40 20 7 39.609059983097 19.911711537693
OEO0031 OEC1024 2019-05-19 12:36:25 20 7 39.608344340324 19.912066181925
OEO0031 OEC1024 2019-05-19 12:36:10 20 1 39.608112106336 19.91239653683
OEO0031 OEC1024 2019-05-19 12:35:55 20 1 39.608228579605 19.912571009424
OEO0031 OEC1024 2019-05-19 12:35:40 20 1 39.608381943154 19.912529496633
OEO0031 OEC1024 2019-05-19 12:35:25 20 0 39.608412023524 19.912499382141
OEO0031 OEC1024 2019-05-19 12:35:10 20 0 39.608412672529 19.912498732401
OEO0031 OEC1024 2019-05-19 12:34:55 20 0 39.608413318884 19.912498085314
OEO0031 OEC1024 2019-05-19 12:34:40 20 0 39.608413978685 19.912497424762
OEO0031 OEC1024 2019-05-19 12:34:25 20 0 39.608414676561 19.912496726016
OEO0031 OEC1024 2019-05-19 12:34:10 20 0 39.608415331005 19.9124960708
OEO0031 OEC1024 2019-05-19 12:33:55 20 0 39.608416005215 19.912495395819
OEO0031 OEC1024 2019-05-19 12:33:40 20 0 39.608416690585 19.912494709666
OEO0031 OEC1024 2019-05-19 12:33:25 20 0 39.608417190976 19.912494208726
OEO0031 OEC1024 2019-05-19 12:33:10 20 0 39.608417190976 19.912494208726
OEO0031 OEC1024 2019-05-19 12:32:55 20 0 39.608417190976 19.912494208726
OEO0031 OEC1024 2019-05-19 12:32:40 20 0 39.608417190976 19.912494208726
OEO0031 OEC1024 2019-05-19 12:32:25 20 0 39.608417190976 19.912494208726
OEO0031 OEC1024 2019-05-19 12:32:10 20 0 39.608417190976 19.912494208726
OEO0031 OEC1024 2019-05-19 12:31:55 20 0 39.608417190976 19.912494208726
OEO0031 OEC1024 2019-05-19 12:31:40 20 0 39.608417190976 19.912494208726
OEO0031 OEC1024 2019-05-19 12:31:25 20 0 39.608417190976 19.912494208726
OEO0031 OEC1024 2019-05-19 12:31:10 20 0 39.608417190976 19.912494208726
OEO0031 OEC1024 2019-05-19 12:30:55 20 0 39.608417190976 19.912494208726
OEO0031 OEC1024 2019-05-19 12:30:40 20 0 39.608417190976 19.912494208726
OEO0031 OEC1024 2019-05-19 12:30:25 20 0 39.608417190976 19.912494208726
OEO0031 OEC1024 2019-05-19 12:30:10 20 0 39.608417190976 19.912494208726
OEO0031 OEC1024 2019-05-19 12:29:55 20 0 39.608417190976 19.912494208726
OEO0031 OEC1024 2019-05-19 12:29:40 20 0 39.608417190976 19.912494208726
OEO0031 OEC1024 2019-05-19 12:29:25 20 0 39.608417190976 19.912494208726
OEO0031 OEC1024 2019-05-19 12:29:10 20 0 39.608417190976 19.912494208726
OEO0031 OEC1024 2019-05-19 12:28:55 20 0 39.608417190976 19.912494208726
OEO0031 OEC1024 2019-05-19 12:28:40 20 0 39.608417190976 19.912494208726
OEO0031 OEC1024 2019-05-19 12:28:25 20 0 39.608417190976 19.912494208726
OEO0031 OEC1024 2019-05-19 12:28:10 20 0 39.608417190976 19.912494208726
OEO0031 OEC1024 2019-05-19 12:27:55 20 0 39.608417190976 19.912494208726
OEO0031 OEC1024 2019-05-19 12:27:40 20 0 39.608417190976 19.912494208726
OEO0031 OEC1024 2019-05-19 12:27:25 20 0 39.608417190976 19.912494208726
OEO0031 OEC1024 2019-05-19 12:27:10 20 0 39.608417190976 19.912494208726
OEO0031 OEC1024 2019-05-19 12:26:55 20 0 39.608417190976 19.912494208726
OEO0031 OEC1024 2019-05-19 12:26:40 20 0 39.608417190976 19.912494208726
OEO0031 OEC1024 2019-05-19 12:26:25 20 0 39.608417190976 19.912494208726
OEO0031 OEC1024 2019-05-19 12:26:10 20 0 39.608417190976 19.912494208726
OEO0031 OEC1024 2019-05-19 12:25:55 20 0 39.608417190976 19.912494208726
OEO0031 OEC1024 2019-05-19 12:25:40 20 0 39.608417190976 19.912494208726
OEO0031 OEC1024 2019-05-19 12:25:25 20 0 39.608417190976 19.912494208726
OEO0031 OEC1024 2019-05-19 12:25:10 20 0 39.608417190976 19.912494208726
OEO0031 OEC1024 2019-05-19 12:24:55 20 0 39.608417190976 19.912494208726
OEO0031 OEC1024 2019-05-19 12:24:40 20 0 39.608417190976 19.912494208726
OEO0031 OEC1024 2019-05-19 12:24:25 20 0 39.608417190976 19.912494208726
OEO0031 OEC1024 2019-05-19 12:24:10 20 0 39.608417190976 19.912494208726
OEO0031 OEC1024 2019-05-19 12:23:55 20 0 39.608417190976 19.912494208726
OEO0031 OEC1024 2019-05-19 12:23:40 20 0 39.608417190976 19.912494208726
OEO0031 OEC1024 2019-05-19 12:23:25 20 0 39.608417190627 19.912494209076
OEO0031 OEC1024 2019-05-19 12:23:10 20 0 39.608417190518 19.912494209184
OEO0031 OEC1024 2019-05-19 12:22:55 20 0 39.608417190518 19.912494209184
OEO0031 OEC1024 2019-05-19 12:22:40 20 0 39.608417190518 19.912494209184
OEO0031 OEC1024 2019-05-19 12:22:25 20 0 39.608417190518 19.912494209184
OEO0031 OEC1024 2019-05-19 12:22:10 20 0 39.608417190518 19.912494209184
OEO0031 OEC1024 2019-05-19 12:21:55 20 0 39.608417190518 19.912494209184
OEO0031 OEC1024 2019-05-19 12:21:40 20 0 39.608417190518 19.912494209184